Time;durP1;ratioP1;P1;durP2;ratioP2;P2;SDS_P1;SDS_P2;PMS_P1;PMS_P2;Temp;Humidity;BMP_temperature;BMP_pressure;BME280_temperature;BME280_humidity;BME280_pressure;Samples;Min_cycle;Max_cycle;Signal;HPM_P1;HPM_P2
2021/04/14 00:01:54;;;;;;;1999.90;999.90;;;2.70;66.90;;;;;;5055309;28;20135;-73
2021/04/14 00:04:21;;;;;;;1999.90;999.90;;;2.70;67.00;;;;;;5052734;28;20084;-73
2021/04/14 00:06:47;;;;;;;1999.90;999.90;;;2.70;67.10;;;;;;5052114;28;20084;-73
2021/04/14 00:09:13;;;;;;;1999.90;999.90;;;2.80;67.20;;;;;;5055034;28;20376;-72
2021/04/14 00:11:40;;;;;;;1999.90;999.90;;;2.80;67.30;;;;;;5037770;28;20075;-72
2021/04/14 00:14:08;;;;;;;1999.90;999.90;;;2.80;67.30;;;;;;5056105;28;20136;-73
2021/04/14 00:16:34;;;;;;;1999.90;999.90;;;2.80;67.50;;;;;;5054939;28;20481;-73
2021/04/14 00:19:02;;;;;;;1999.90;999.90;;;2.80;67.60;;;;;;5053981;28;20528;-73
2021/04/14 00:21:29;;;;;;;1999.90;999.90;;;2.80;67.70;;;;;;5040446;28;20079;-73
2021/04/14 00:23:56;;;;;;;1999.90;999.90;;;2.80;67.70;;;;;;5055374;28;20486;-72
2021/04/14 00:26:22;;;;;;;1999.90;999.90;;;2.70;67.70;;;;;;5064563;28;20045;-72
2021/04/14 00:28:49;;;;;;;1999.90;999.90;;;2.70;67.60;;;;;;5064006;28;20057;-73
2021/04/14 00:31:16;;;;;;;1999.90;999.90;;;2.70;67.60;;;;;;5037273;28;20044;-73
2021/04/14 00:33:43;;;;;;;1999.90;999.90;;;2.70;67.70;;;;;;5042934;28;20059;-72
2021/04/14 00:36:10;;;;;;;1999.90;999.90;;;2.70;67.60;;;;;;5038254;28;20048;-72
2021/04/14 00:38:39;;;;;;;1999.90;999.90;;;2.70;67.60;;;;;;5049627;28;20048;-72
2021/04/14 00:41:11;;;;;;;1999.90;999.90;;;2.70;67.60;;;;;;5066919;28;20135;-73
2021/04/14 00:43:38;;;;;;;1999.90;999.90;;;2.60;67.70;;;;;;5057074;28;20376;-72
2021/04/14 00:46:06;;;;;;;1999.90;999.90;;;2.60;67.70;;;;;;5065821;28;20045;-72
2021/04/14 00:48:33;;;;;;;1999.90;999.90;;;2.70;67.80;;;;;;5063440;28;20045;-72
2021/04/14 00:51:00;;;;;;;1999.90;999.90;;;2.60;67.80;;;;;;5051389;28;20047;-73
2021/04/14 00:53:27;;;;;;;1999.90;999.90;;;2.60;68.00;;;;;;5054072;28;20479;-72
2021/04/14 00:55:54;;;;;;;1999.90;999.90;;;2.60;68.10;;;;;;5040122;28;20107;-72
2021/04/14 00:58:20;;;;;;;1999.90;999.90;;;2.60;68.30;;;;;;5044235;28;20063;-73
2021/04/14 01:00:52;;;;;;;1999.90;999.90;;;2.60;68.30;;;;;;5050431;28;20059;-73
2021/04/14 01:03:21;;;;;;;1999.90;999.90;;;2.50;68.30;;;;;;5060198;28;20086;-72
2021/04/14 01:05:50;;;;;;;1999.90;999.90;;;2.50;68.40;;;;;;5047087;28;20422;-72
2021/04/14 01:08:16;;;;;;;1999.90;999.90;;;2.50;68.40;;;;;;5039776;28;20033;-73
2021/04/14 01:10:42;;;;;;;1999.90;999.90;;;2.60;68.60;;;;;;5059808;28;20047;-73
2021/04/14 01:13:10;;;;;;;1999.90;999.90;;;2.60;68.60;;;;;;5060411;28;20051;-73
2021/04/14 01:15:40;;;;;;;1999.90;999.90;;;2.60;68.70;;;;;;5054533;28;20056;-73
2021/04/14 01:18:08;;;;;;;1999.90;999.90;;;2.60;68.70;;;;;;5061863;28;20079;-72
2021/04/14 01:20:36;;;;;;;1999.90;999.90;;;2.60;68.90;;;;;;5058039;28;20435;-72
2021/04/14 01:23:04;;;;;;;1999.90;999.90;;;2.60;68.90;;;;;;5053405;28;20037;-73
2021/04/14 01:25:35;;;;;;;1999.90;999.90;;;2.60;69.10;;;;;;5058466;28;20765;-73
2021/04/14 01:28:06;;;;;;;1999.90;999.90;;;2.60;69.20;;;;;;5051757;28;20045;-73
2021/04/14 01:30:33;;;;;;;1999.90;999.90;;;2.60;69.20;;;;;;5046537;28;20143;-73
2021/04/14 01:32:59;;;;;;;1999.90;999.90;;;2.60;69.20;;;;;;5043047;28;20037;-73
2021/04/14 01:35:28;;;;;;;1999.90;999.90;;;2.60;69.30;;;;;;5045444;28;20043;-72
2021/04/14 01:37:55;;;;;;;1999.90;999.90;;;2.50;69.30;;;;;;5059924;28;20491;-73
2021/04/14 01:40:23;;;;;;;1999.90;999.90;;;2.50;69.50;;;;;;5063738;28;20416;-73
2021/04/14 01:42:50;;;;;;;1999.90;999.90;;;2.50;69.40;;;;;;5058577;28;20092;-73
2021/04/14 01:45:22;;;;;;;1999.90;999.90;;;2.60;69.50;;;;;;5038917;28;20051;-72
2021/04/14 01:47:49;;;;;;;1999.90;999.90;;;2.60;69.50;;;;;;5052654;28;20127;-72
2021/04/14 01:50:15;;;;;;;1999.90;999.90;;;2.60;69.60;;;;;;5066044;28;20045;-73
2021/04/14 01:52:41;;;;;;;1999.90;999.90;;;2.60;69.70;;;;;;5061021;28;20036;-72
2021/04/14 01:55:09;;;;;;;1999.90;999.90;;;2.60;69.70;;;;;;5057988;28;20053;-72
2021/04/14 01:57:35;;;;;;;1999.90;999.90;;;2.60;69.70;;;;;;5059646;28;20047;-73
2021/04/14 02:00:08;;;;;;;1999.90;999.90;;;2.60;69.70;;;;;;5064069;28;20045;-72
2021/04/14 02:02:34;;;;;;;1999.90;999.90;;;2.60;69.80;;;;;;5033360;28;20059;-73
2021/04/14 02:05:01;;;;;;;1999.90;999.90;;;2.60;69.90;;;;;;5057454;28;20048;-73
2021/04/14 02:07:27;;;;;;;1999.90;999.90;;;2.50;69.90;;;;;;5046009;28;20144;-73
2021/04/14 02:09:53;;;;;;;1999.90;999.90;;;2.50;70.10;;;;;;5056914;28;20475;-72
2021/04/14 02:12:20;;;;;;;1999.90;999.90;;;2.60;70.20;;;;;;5061634;28;20072;-73
2021/04/14 02:14:46;;;;;;;1999.90;999.90;;;2.60;70.20;;;;;;5063510;28;20053;-72
2021/04/14 02:17:12;;;;;;;1999.90;999.90;;;2.50;70.20;;;;;;5057338;28;20143;-73
2021/04/14 02:19:38;;;;;;;1999.90;999.90;;;2.50;70.30;;;;;;5054103;28;20045;-73
2021/04/14 02:22:05;;;;;;;1999.90;999.90;;;2.50;70.40;;;;;;5038762;28;20044;-73
2021/04/14 02:24:31;;;;;;;1999.90;999.90;;;2.60;70.50;;;;;;5057169;28;20130;-73
2021/04/14 02:26:57;;;;;;;1999.90;999.90;;;2.60;70.60;;;;;;5050196;28;20049;-73
2021/04/14 02:29:23;;;;;;;1999.90;999.90;;;2.60;70.60;;;;;;5055944;28;20476;-72
2021/04/14 02:31:49;;;;;;;1999.90;999.90;;;2.50;70.60;;;;;;5059917;28;20047;-72
2021/04/14 02:34:15;;;;;;;1999.90;999.90;;;2.50;70.70;;;;;;5042733;28;20045;-72
2021/04/14 02:36:43;;;;;;;1999.90;999.90;;;2.50;70.80;;;;;;5057293;28;20044;-72
2021/04/14 02:39:11;;;;;;;1999.90;999.90;;;2.50;70.80;;;;;;5056419;28;20119;-73
2021/04/14 02:41:39;;;;;;;1999.90;999.90;;;2.50;70.90;;;;;;5055669;28;20055;-72
2021/04/14 02:44:05;;;;;;;1999.90;999.90;;;2.50;70.90;;;;;;5039800;28;20068;-73
2021/04/14 02:46:32;;;;;;;1999.90;999.90;;;2.50;70.90;;;;;;5058936;28;20060;-73
2021/04/14 02:48:58;;;;;;;1999.90;999.90;;;2.50;70.90;;;;;;5042131;28;20484;-72
2021/04/14 02:51:24;;;;;;;1999.90;999.90;;;2.50;70.80;;;;;;5017252;28;20045;-73
2021/04/14 02:53:51;;;;;;;1999.90;999.90;;;2.50;70.90;;;;;;5036401;28;20041;-73
2021/04/14 02:56:17;;;;;;;1999.90;999.90;;;2.50;71.00;;;;;;5039769;28;20076;-72
2021/04/14 02:58:46;;;;;;;1999.90;999.90;;;2.50;71.00;;;;;;5017708;28;20045;-73
2021/04/14 03:01:14;;;;;;;1999.90;999.90;;;2.50;70.90;;;;;;5022654;28;20053;-73
2021/04/14 03:03:40;;;;;;;1999.90;999.90;;;2.50;70.80;;;;;;5036928;28;20059;-73
2021/04/14 03:06:06;;;;;;;1999.90;999.90;;;2.50;70.90;;;;;;5043427;28;20143;-72
2021/04/14 03:08:32;;;;;;;1999.90;999.90;;;2.50;70.80;;;;;;5044254;28;20405;-72
2021/04/14 03:10:59;;;;;;;1999.90;999.90;;;2.50;70.70;;;;;;5045500;28;20049;-72
2021/04/14 03:13:25;;;;;;;1999.90;999.90;;;2.40;70.70;;;;;;5045481;28;20049;-72
2021/04/14 03:15:51;;;;;;;1999.90;999.90;;;2.40;70.80;;;;;;5039681;28;20049;-72
2021/04/14 03:18:46;;;;;;;1999.90;999.90;;;2.40;70.90;;;;;;5040547;28;20488;-72
2021/04/14 03:21:12;;;;;;;1999.90;999.90;;;2.30;71.00;;;;;;5034468;28;20055;-72
2021/04/14 03:23:38;;;;;;;1999.90;999.90;;;2.30;71.50;;;;;;5041445;28;20054;-73
2021/04/14 03:26:05;;;;;;;1999.90;999.90;;;2.30;71.00;;;;;;5025857;28;20441;-73
2021/04/14 03:28:31;;;;;;;1999.90;999.90;;;2.30;71.00;;;;;;5049345;28;20628;-73
2021/04/14 03:30:57;;;;;;;1999.90;999.90;;;2.30;71.70;;;;;;5037231;28;20056;-73
2021/04/14 03:33:24;;;;;;;1999.90;999.90;;;2.30;71.10;;;;;;5021413;28;20156;-72
2021/04/14 03:35:50;;;;;;;1999.90;999.90;;;2.20;71.10;;;;;;5022737;28;20460;-72
2021/04/14 03:38:16;;;;;;;1999.90;999.90;;;2.20;71.20;;;;;;5040481;28;20069;-73
2021/04/14 03:40:42;;;;;;;1999.90;999.90;;;2.20;71.20;;;;;;5016942;28;20392;-72
2021/04/14 03:43:08;;;;;;;1999.90;999.90;;;2.20;71.30;;;;;;5041688;28;20046;-73
2021/04/14 03:45:39;;;;;;;1999.90;999.90;;;2.20;71.40;;;;;;5041013;28;20096;-73
2021/04/14 03:48:06;;;;;;;1999.90;999.90;;;2.20;71.40;;;;;;5026548;28;20103;-73
2021/04/14 03:50:33;;;;;;;1999.90;999.90;;;2.10;71.40;;;;;;5024150;28;20041;-72
2021/04/14 03:53:16;;;;;;;1999.90;999.90;;;2.20;71.90;;;;;;5037519;28;20184;-73
2021/04/14 03:55:43;;;;;;;1999.90;999.90;;;2.10;71.60;;;;;;5043857;28;20049;-72
2021/04/14 03:58:09;;;;;;;1999.90;999.90;;;2.10;71.70;;;;;;5043973;28;20072;-73
2021/04/14 04:00:35;;;;;;;1999.90;999.90;;;2.10;71.80;;;;;;5045365;28;20135;-72
2021/04/14 04:03:02;;;;;;;1999.90;999.90;;;2.10;71.90;;;;;;5035138;28;20137;-72
2021/04/14 04:05:28;;;;;;;1999.90;999.90;;;2.00;71.90;;;;;;5028376;28;20127;-73
2021/04/14 04:07:55;;;;;;;1999.90;999.90;;;2.10;72.10;;;;;;5033024;28;20084;-73
2021/04/14 04:10:21;;;;;;;1999.90;999.90;;;2.10;72.20;;;;;;5062980;28;20040;-72
2021/04/14 04:12:47;;;;;;;1999.90;999.90;;;2.10;72.20;;;;;;5027033;28;20129;-72
2021/04/14 04:15:13;;;;;;;1999.90;999.90;;;2.10;72.10;;;;;;5033113;28;20059;-72
2021/04/14 04:17:40;;;;;;;1999.90;999.90;;;2.10;72.10;;;;;;5025394;28;20085;-73
2021/04/14 04:20:10;;;;;;;1999.90;999.90;;;2.10;72.20;;;;;;5037280;28;20403;-72
2021/04/14 04:22:38;;;;;;;1999.90;999.90;;;2.10;72.20;;;;;;5053906;28;20916;-73
2021/04/14 04:25:05;;;;;;;1999.90;999.90;;;2.10;72.20;;;;;;5052574;28;20128;-73
2021/04/14 04:27:31;;;;;;;1999.90;999.90;;;2.10;72.30;;;;;;5053819;28;20044;-74
2021/04/14 04:29:57;;;;;;;1999.90;999.90;;;2.10;72.30;;;;;;5050237;28;20429;-73
2021/04/14 04:32:24;;;;;;;1999.90;999.90;;;2.20;72.50;;;;;;5024531;28;20068;-72
2021/04/14 04:34:50;;;;;;;1999.90;999.90;;;2.20;72.50;;;;;;5047096;28;20041;-72
2021/04/14 04:37:17;;;;;;;1999.90;999.90;;;2.20;72.60;;;;;;5038225;28;20052;-73
2021/04/14 04:39:43;;;;;;;1999.90;999.90;;;2.20;72.50;;;;;;5037181;28;20135;-72
2021/04/14 04:42:09;;;;;;;1999.90;999.90;;;2.20;72.60;;;;;;5049081;28;20132;-72
2021/04/14 04:44:35;;;;;;;1999.90;999.90;;;2.20;72.60;;;;;;5055216;28;20464;-72
2021/04/14 04:47:02;;;;;;;1999.90;999.90;;;2.20;72.60;;;;;;5048284;28;20043;-72
2021/04/14 04:49:28;;;;;;;1999.90;999.90;;;2.20;72.60;;;;;;5044151;28;20057;-72
2021/04/14 04:51:54;;;;;;;1999.90;999.90;;;2.20;72.60;;;;;;5048524;28;20053;-72
2021/04/14 04:54:21;;;;;;;1999.90;999.90;;;2.20;72.70;;;;;;5047753;28;20045;-73
2021/04/14 04:56:47;;;;;;;1999.90;999.90;;;2.10;72.60;;;;;;5047221;28;20158;-74
2021/04/14 04:59:23;;;;;;;1999.90;999.90;;;2.10;72.60;;;;;;5050737;28;20441;-72
2021/04/14 05:01:51;;;;;;;1999.90;999.90;;;2.10;72.70;;;;;;5047062;28;20041;-73
2021/04/14 05:04:17;;;;;;;1999.90;999.90;;;2.10;72.80;;;;;;5025744;28;20057;-73
2021/04/14 05:06:44;;;;;;;1999.90;999.90;;;2.10;72.80;;;;;;5031329;28;20088;-73
2021/04/14 05:09:10;;;;;;;1999.90;999.90;;;2.10;73.00;;;;;;5035388;28;20150;-72
2021/04/14 05:11:36;;;;;;;1999.90;999.90;;;2.20;73.30;;;;;;5043000;28;20322;-72
2021/04/14 05:14:03;;;;;;;1999.90;999.90;;;2.20;73.40;;;;;;5047446;28;20127;-73
2021/04/14 05:16:29;;;;;;;1999.90;999.90;;;2.20;73.50;;;;;;5021562;28;20068;-73
2021/04/14 05:18:55;;;;;;;1999.90;999.90;;;2.20;73.60;;;;;;5041845;28;20458;-73
2021/04/14 05:21:22;;;;;;;1999.90;999.90;;;2.20;73.70;;;;;;5032460;28;20080;-72
2021/04/14 05:23:49;;;;;;;1999.90;999.90;;;2.20;73.80;;;;;;5048057;28;20140;-73
2021/04/14 05:26:17;;;;;;;1999.90;999.90;;;2.30;73.80;;;;;;5051145;28;20055;-72
2021/04/14 05:28:44;;;;;;;1999.90;999.90;;;2.30;73.80;;;;;;5027289;28;20068;-73
2021/04/14 05:31:13;;;;;;;1999.90;999.90;;;2.30;74.50;;;;;;5027012;28;20133;-72
2021/04/14 05:33:40;;;;;;;1999.90;999.90;;;2.30;73.90;;;;;;5028906;28;20044;-72
2021/04/14 05:36:53;;;;;;;1999.90;999.90;;;2.30;74.00;;;;;;5022444;28;20053;-72
2021/04/14 05:39:20;;;;;;;1999.90;999.90;;;2.30;74.10;;;;;;5044514;28;20049;-72
2021/04/14 05:41:46;;;;;;;1999.90;999.90;;;2.30;74.10;;;;;;5049208;28;20049;-72
2021/04/14 05:44:13;;;;;;;1999.90;999.90;;;2.30;74.20;;;;;;5040625;28;20133;-72
2021/04/14 05:46:39;;;;;;;1999.90;999.90;;;2.30;74.40;;;;;;5045264;28;20041;-73
2021/04/14 05:49:06;;;;;;;1999.90;999.90;;;2.40;74.70;;;;;;5024223;28;20061;-72
2021/04/14 05:51:33;;;;;;;1999.90;999.90;;;2.40;75.00;;;;;;5045344;28;20077;-72
2021/04/14 05:54:01;;;;;;;1999.90;999.90;;;2.50;75.40;;;;;;5035330;28;20184;-72
2021/04/14 05:56:29;;;;;;;1999.90;999.90;;;2.50;75.80;;;;;;5033989;28;20742;-72
2021/04/14 05:58:56;;;;;;;1999.90;999.90;;;2.60;76.00;;;;;;5027000;28;20047;-72
2021/04/14 06:01:25;;;;;;;1999.90;999.90;;;2.70;76.20;;;;;;5052694;28;20128;-72
2021/04/14 06:03:52;;;;;;;1999.90;999.90;;;2.80;76.30;;;;;;5029509;28;20045;-73
2021/04/14 06:06:20;;;;;;;1999.90;999.90;;;2.90;76.60;;;;;;5032966;28;20476;-73
2021/04/14 06:08:46;;;;;;;1999.90;999.90;;;2.90;76.60;;;;;;5043915;28;20136;-73
2021/04/14 06:11:13;;;;;;;1999.90;999.90;;;3.00;76.70;;;;;;5004457;28;20664;-72
2021/04/14 06:13:40;;;;;;;1999.90;999.90;;;3.10;76.90;;;;;;5042658;28;20053;-72
2021/04/14 06:16:09;;;;;;;1999.90;999.90;;;3.20;77.20;;;;;;5046507;28;20500;-72
2021/04/14 06:18:36;;;;;;;1999.90;999.90;;;3.30;77.70;;;;;;5020408;28;20479;-72
2021/04/14 06:21:04;;;;;;;1999.90;999.90;;;3.40;78.40;;;;;;5053013;28;20049;-72
2021/04/14 06:23:31;;;;;;;1999.90;999.90;;;3.50;78.10;;;;;;5044394;28;20080;-72
2021/04/14 06:28:38;;;;;;;1999.90;999.90;;;3.70;78.30;;;;;;5043011;28;20745;-72
2021/04/14 06:31:07;;;;;;;1999.90;999.90;;;3.80;78.30;;;;;;5023945;28;20403;-72
2021/04/14 06:33:37;;;;;;;1999.90;999.90;;;3.90;78.60;;;;;;5038584;28;20044;-72
2021/04/14 06:36:06;;;;;;;1999.90;999.90;;;4.00;79.00;;;;;;5022134;28;20124;-73
2021/04/14 06:38:36;;;;;;;1999.90;999.90;;;4.10;79.30;;;;;;5025141;28;20051;-72
2021/04/14 06:44:52;;;;;;;1999.90;999.90;;;4.40;82.80;;;;;;5039343;28;20044;-72
2021/04/14 06:47:30;;;;;;;1999.90;999.90;;;4.40;80.80;;;;;;5047407;28;20049;-72
2021/04/14 06:50:06;;;;;;;1999.90;999.90;;;4.50;80.00;;;;;;5024529;28;20049;-72
2021/04/14 06:52:43;;;;;;;1999.90;999.90;;;4.50;79.70;;;;;;5041822;28;20044;-72
2021/04/14 06:55:13;;;;;;;1999.90;999.90;;;4.60;79.80;;;;;;5033994;28;20063;-73
2021/04/14 06:57:43;;;;;;;1999.90;999.90;;;4.60;80.20;;;;;;5045892;28;20369;-72
2021/04/14 07:00:24;;;;;;;1999.90;999.90;;;4.60;80.40;;;;;;5043247;28;20056;-73
2021/04/14 07:03:11;;;;;;;1999.90;999.90;;;4.70;80.40;;;;;;5043281;28;20051;-73
2021/04/14 07:05:44;;;;;;;1999.90;999.90;;;4.70;80.30;;;;;;5042498;28;20131;-73
2021/04/14 07:08:19;;;;;;;1999.90;999.90;;;4.80;80.60;;;;;;5021143;28;20132;-73
2021/04/14 07:10:50;;;;;;;1999.90;999.90;;;4.80;80.80;;;;;;5040854;28;20045;-72
2021/04/14 07:13:16;;;;;;;1999.90;999.90;;;4.80;81.10;;;;;;5037503;28;20037;-73
2021/04/14 07:15:42;;;;;;;1999.90;999.90;;;4.80;80.60;;;;;;5023007;28;20438;-74
2021/04/14 07:18:17;;;;;;;1999.90;999.90;;;4.80;80.60;;;;;;5022357;28;20380;-73
2021/04/14 07:21:14;;;;;;;1999.90;999.90;;;4.80;81.20;;;;;;5043593;28;20052;-73
2021/04/14 07:23:53;;;;;;;1999.90;999.90;;;4.60;81.50;;;;;;5046877;28;20044;-71
2021/04/14 07:26:33;;;;;;;1999.90;999.90;;;4.30;79.20;;;;;;5047836;28;20067;-72
2021/04/14 07:29:08;;;;;;;1999.90;999.90;;;4.00;80.70;;;;;;5049582;28;20041;-71
2021/04/14 07:31:45;;;;;;;1999.90;999.90;;;3.70;82.70;;;;;;5043514;28;20053;-70
2021/04/14 07:34:21;;;;;;;1999.90;999.90;;;3.40;85.40;;;;;;5042298;28;20417;-70
2021/04/14 07:36:53;;;;;;;1999.90;999.90;;;3.10;87.10;;;;;;5035765;28;20059;-70
2021/04/14 07:39:38;;;;;;;1999.90;999.90;;;2.90;90.20;;;;;;5041980;28;20053;-71
2021/04/14 07:42:33;;;;;;;1999.90;999.90;;;2.50;94.30;;;;;;5041241;28;20160;-70
2021/04/14 07:45:22;;;;;;;1999.90;999.90;;;2.30;96.40;;;;;;5041512;28;20157;-70
2021/04/14 07:47:52;;;;;;;1999.90;999.90;;;2.10;95.40;;;;;;5046231;28;20132;-70
2021/04/14 07:50:22;;;;;;;1999.90;999.90;;;2.10;94.50;;;;;;5045375;28;20041;-70
2021/04/14 07:52:48;;;;;;;1999.90;999.90;;;2.10;92.70;;;;;;5047866;28;20045;-71
2021/04/14 07:55:21;;;;;;;1999.90;999.90;;;2.10;93.90;;;;;;5037430;28;20171;-70
2021/04/14 07:57:47;;;;;;;1999.90;999.90;;;2.20;91.40;;;;;;5047520;28;20488;-70
2021/04/14 08:00:16;;;;;;;1999.90;999.90;;;2.30;91.20;;;;;;5048076;28;20122;-70
2021/04/14 08:02:43;;;;;;;1999.90;999.90;;;2.30;90.90;;;;;;5045524;28;20067;-70
2021/04/14 08:05:26;;;;;;;1999.90;999.90;;;2.50;89.70;;;;;;5045356;28;20458;-70
2021/04/14 08:07:53;;;;;;;1999.90;999.90;;;2.60;86.40;;;;;;5029227;28;20394;-70
2021/04/14 08:10:29;;;;;;;1999.90;999.90;;;2.70;85.30;;;;;;5042684;28;20403;-71
2021/04/14 08:13:07;;;;;;;1999.90;999.90;;;2.80;84.90;;;;;;5045359;28;20141;-70
2021/04/14 08:15:44;;;;;;;1999.90;999.90;;;3.00;85.20;;;;;;5024829;28;20180;-71
2021/04/14 08:18:13;;;;;;;1999.90;999.90;;;3.10;84.40;;;;;;5050774;28;20053;-71
2021/04/14 08:20:41;;;;;;;1999.90;999.90;;;3.30;84.50;;;;;;5052080;28;20074;-71
2021/04/14 08:23:16;;;;;;;1999.90;999.90;;;3.50;84.60;;;;;;5050060;28;20045;-70
2021/04/14 08:25:52;;;;;;;1999.90;999.90;;;3.60;85.00;;;;;;5047734;28;20597;-70
2021/04/14 08:28:33;;;;;;;1999.90;999.90;;;3.80;85.70;;;;;;5045530;28;20055;-70
2021/04/14 08:31:34;;;;;;;1999.90;999.90;;;3.90;86.20;;;;;;5049039;28;20048;-71
2021/04/14 08:34:20;;;;;;;1999.90;999.90;;;4.10;87.00;;;;;;5048037;28;20137;-70
2021/04/14 08:36:57;;;;;;;1999.90;999.90;;;4.20;88.00;;;;;;5050360;28;20046;-70
2021/04/14 08:39:48;;;;;;;1999.90;999.90;;;4.30;88.80;;;;;;5028798;28;20060;-71
2021/04/14 08:42:20;;;;;;;1999.90;999.90;;;4.40;89.40;;;;;;5037091;28;20132;-70
2021/04/14 08:44:49;;;;;;;1999.90;999.90;;;4.50;90.60;;;;;;5024070;28;20045;-71
2021/04/14 08:47:28;;;;;;;1999.90;999.90;;;4.60;90.90;;;;;;5030572;28;20057;-70
2021/04/14 08:50:03;;;;;;;1999.90;999.90;;;4.80;91.20;;;;;;5049162;28;20472;-70
2021/04/14 08:52:48;;;;;;;1999.90;999.90;;;4.90;91.20;;;;;;5039237;28;20183;-71
2021/04/14 08:55:15;;;;;;;1999.90;999.90;;;5.10;91.50;;;;;;5043196;28;20135;-70
2021/04/14 08:57:41;;;;;;;1999.90;999.90;;;5.30;92.00;;;;;;5024280;28;20508;-71
2021/04/14 09:00:09;;;;;;;1999.90;999.90;;;5.40;92.10;;;;;;5046688;28;20049;-70
2021/04/14 09:02:39;;;;;;;1999.90;999.90;;;5.60;92.30;;;;;;5048677;28;20094;-71
2021/04/14 09:05:09;;;;;;;1999.90;999.90;;;5.80;92.50;;;;;;5047674;28;20048;-70
2021/04/14 09:07:37;;;;;;;1999.90;999.90;;;6.00;92.60;;;;;;5026099;28;20044;-70
2021/04/14 09:10:10;;;;;;;1999.90;999.90;;;6.30;93.30;;;;;;5043067;28;20068;-71
2021/04/14 09:12:43;;;;;;;1999.90;999.90;;;6.50;93.00;;;;;;5048044;28;20048;-70
2021/04/14 09:15:14;;;;;;;1999.90;999.90;;;6.70;93.00;;;;;;5023104;28;20458;-71
2021/04/14 09:17:42;;;;;;;1999.90;999.90;;;6.90;92.90;;;;;;5028801;28;20132;-71
2021/04/14 09:20:19;;;;;;;1999.90;999.90;;;7.00;93.00;;;;;;5047281;28;20048;-71
2021/04/14 09:22:57;;;;;;;1999.90;999.90;;;7.30;93.70;;;;;;5044973;28;20068;-70
2021/04/14 09:25:31;;;;;;;1999.90;999.90;;;7.50;93.30;;;;;;5045530;28;20414;-70
2021/04/14 09:28:02;;;;;;;1999.90;999.90;;;7.50;92.70;;;;;;5047355;28;20052;-71
2021/04/14 09:30:47;;;;;;;1999.90;999.90;;;7.40;92.90;;;;;;5045166;28;20036;-70
2021/04/14 09:33:20;;;;;;;1999.90;999.90;;;7.30;92.80;;;;;;5037267;28;20045;-71
2021/04/14 09:35:49;;;;;;;1999.90;999.90;;;7.20;92.30;;;;;;5038700;28;20048;-72
2021/04/14 09:38:22;;;;;;;;;;;7.20;92.40;;;;;;5040015;28;20041;-71
2021/04/14 09:40:50;;;;;;;1999.90;999.90;;;7.20;92.90;;;;;;5044765;28;19927;-70
2021/04/14 09:43:28;;;;;;;1999.90;999.90;;;7.30;92.60;;;;;;5044799;28;20384;-71
2021/04/14 09:46:02;;;;;;;1999.90;999.90;;;7.30;92.60;;;;;;5045422;28;20620;-71
2021/04/14 09:48:46;;;;;;;1999.90;999.90;;;7.30;92.70;;;;;;5042788;28;20384;-70
2021/04/14 09:51:35;;;;;;;1999.90;999.90;;;7.40;92.80;;;;;;5025931;28;20124;-71
2021/04/14 09:54:14;;;;;;;1999.90;999.90;;;7.40;93.20;;;;;;5048925;28;20037;-70
2021/04/14 09:56:51;;;;;;;1999.90;999.90;;;7.40;93.00;;;;;;5044971;28;20454;-71
2021/04/14 09:59:34;;;;;;;1999.90;999.90;;;7.50;93.00;;;;;;5051068;28;20052;-70
2021/04/14 10:02:07;;;;;;;1999.90;999.90;;;7.70;92.90;;;;;;5046526;28;20063;-70
2021/04/14 10:04:36;;;;;;;1999.90;999.90;;;8.00;93.20;;;;;;5038677;28;20058;-70
2021/04/14 10:07:12;;;;;;;1999.90;999.90;;;8.30;93.00;;;;;;5046661;28;20119;-71
2021/04/14 10:09:38;;;;;;;1999.90;999.90;;;8.20;92.40;;;;;;5047613;28;20486;-71
2021/04/14 10:12:12;;;;;;;1999.90;999.90;;;8.00;92.20;;;;;;5022872;28;20127;-71
2021/04/14 10:14:48;;;;;;;1999.90;999.90;;;7.80;91.70;;;;;;5044725;28;20057;-71
2021/04/14 10:17:17;;;;;;;1999.90;999.90;;;7.60;91.40;;;;;;5026356;28;20049;-71
2021/04/14 10:19:46;;;;;;;1999.90;999.90;;;7.40;91.40;;;;;;5030444;28;20040;-71
2021/04/14 10:22:27;;;;;;;1999.90;999.90;;;7.30;91.20;;;;;;5041538;28;20124;-71
2021/04/14 10:25:20;;;;;;;1999.90;999.90;;;7.10;90.90;;;;;;5041982;28;20480;-71
2021/04/14 10:27:51;;;;;;;1999.90;999.90;;;7.00;91.00;;;;;;5031788;28;20053;-71
2021/04/14 10:30:21;;;;;;;1999.90;999.90;;;6.80;91.10;;;;;;5044392;28;20048;-71
2021/04/14 10:32:49;;;;;;;1999.90;999.90;;;6.60;90.70;;;;;;5048920;28;20045;-71
2021/04/14 10:35:20;;;;;;;1999.90;999.90;;;6.40;90.60;;;;;;5046902;28;20498;-71
2021/04/14 10:37:51;;;;;;;1999.90;999.90;;;6.10;90.10;;;;;;5043285;28;20048;-71
2021/04/14 10:40:40;;;;;;;1999.90;999.90;;;5.90;90.20;;;;;;5045913;28;20051;-71
2021/04/14 10:43:19;;;;;;;1999.90;999.90;;;5.70;90.10;;;;;;5049214;28;20053;-71
2021/04/14 10:46:14;;;;;;;1999.90;999.90;;;5.60;90.00;;;;;;5049196;28;20655;-71
2021/04/14 10:48:46;;;;;;;1999.90;999.90;;;5.40;89.70;;;;;;5043837;28;20454;-71
2021/04/14 10:51:22;;;;;;;1999.90;999.90;;;5.30;90.00;;;;;;5049718;28;20498;-71
2021/04/14 10:53:52;;;;;;;1999.90;999.90;;;5.30;90.50;;;;;;5049764;28;20464;-71
2021/04/14 10:56:24;;;;;;;1999.90;999.90;;;5.30;90.30;;;;;;5045753;28;20038;-71
2021/04/14 10:58:52;;;;;;;1999.90;999.90;;;5.30;90.60;;;;;;5026791;28;20057;-71
2021/04/14 11:01:30;;;;;;;1999.90;999.90;;;5.40;91.00;;;;;;5046871;28;20053;-71
2021/04/14 11:04:35;;;;;;;1999.90;999.90;;;5.40;91.30;;;;;;5045514;28;20105;-71
2021/04/14 11:07:06;;;;;;;1999.90;999.90;;;5.40;92.20;;;;;;5045468;28;20127;-71
2021/04/14 11:09:38;;;;;;;1999.90;999.90;;;5.50;92.20;;;;;;5044640;28;20038;-72
2021/04/14 11:12:09;;;;;;;1999.90;999.90;;;5.50;92.40;;;;;;5039807;28;20047;-71
2021/04/14 11:14:40;;;;;;;1999.90;999.90;;;5.50;92.70;;;;;;5042752;28;20052;-71
2021/04/14 11:17:08;;;;;;;1999.90;999.90;;;5.60;92.60;;;;;;5044390;28;20495;-71
2021/04/14 11:19:40;;;;;;;1999.90;999.90;;;5.60;92.30;;;;;;5024682;28;20704;-71
2021/04/14 11:22:09;;;;;;;1999.90;999.90;;;5.70;93.30;;;;;;5043125;28;20070;-71
2021/04/14 11:24:47;;;;;;;1999.90;999.90;;;5.70;94.40;;;;;;5024737;28;20050;-72
2021/04/14 11:27:21;;;;;;;1999.90;999.90;;;5.80;93.80;;;;;;5043856;28;20052;-71
2021/04/14 11:29:48;;;;;;;1999.90;999.90;;;5.80;93.70;;;;;;5039257;28;20052;-71
2021/04/14 11:32:18;;;;;;;1999.90;999.90;;;5.90;93.80;;;;;;5044971;28;20044;-71
2021/04/14 11:35:00;;;;;;;1999.90;999.90;;;5.90;94.30;;;;;;5032275;28;20472;-71
2021/04/14 11:37:29;;;;;;;1999.90;999.90;;;5.90;93.90;;;;;;5048320;28;20060;-71
2021/04/14 11:40:14;;;;;;;1999.90;999.90;;;6.00;94.00;;;;;;5044163;28;20084;-71
2021/04/14 11:43:02;;;;;;;1999.90;999.90;;;6.10;95.10;;;;;;5022374;28;20076;-71
2021/04/14 11:45:37;;;;;;;1999.90;999.90;;;6.50;96.20;;;;;;5025552;28;20060;-71
2021/04/14 11:48:16;;;;;;;1999.90;999.90;;;7.00;96.40;;;;;;5049288;28;20115;-71
2021/04/14 11:50:44;;;;;;;1999.90;999.90;;;7.30;95.50;;;;;;5031241;28;20076;-71
2021/04/14 11:53:29;;;;;;;1999.90;999.90;;;7.50;94.90;;;;;;5042332;28;20107;-71
2021/04/14 11:55:57;;;;;;;1999.90;999.90;;;7.60;94.50;;;;;;5048884;28;20536;-71
2021/04/14 11:58:45;;;;;;;1999.90;999.90;;;7.50;93.90;;;;;;5042109;28;20045;-71
2021/04/14 12:01:26;;;;;;;1999.90;999.90;;;7.30;93.70;;;;;;5027074;28;20048;-71
2021/04/14 12:03:53;;;;;;;1999.90;999.90;;;7.20;93.80;;;;;;5042543;28;20371;-72
2021/04/14 12:06:22;;;;;;;1999.90;999.90;;;7.20;93.30;;;;;;5049551;28;20053;-72
2021/04/14 12:08:48;;;;;;;1999.90;999.90;;;7.10;93.10;;;;;;5046657;28;20264;-71
2021/04/14 12:11:24;;;;;;;1999.90;999.90;;;7.20;93.10;;;;;;5025903;28;21122;-71
2021/04/14 12:13:51;;;;;;;1999.90;999.90;;;7.30;93.70;;;;;;5042396;28;20053;-71
2021/04/14 12:16:17;;;;;;;1999.90;999.90;;;7.80;94.70;;;;;;5048785;28;20063;-71
2021/04/14 12:18:45;;;;;;;1999.90;999.90;;;8.40;95.50;;;;;;5045453;28;20425;-72
2021/04/14 12:21:12;;;;;;;1999.90;999.90;;;9.00;96.30;;;;;;5043815;28;20485;-71
2021/04/14 12:23:39;;;;;;;1999.90;999.90;;;9.60;96.90;;;;;;5027699;28;20185;-72
2021/04/14 12:26:05;;;;;;;1999.90;999.90;;;10.10;96.80;;;;;;5046154;28;20053;-71
2021/04/14 12:28:32;;;;;;;1999.90;999.90;;;10.20;95.80;;;;;;5026686;28;20057;-72
2021/04/14 12:30:58;;;;;;;1999.90;999.90;;;10.20;95.30;;;;;;5046320;28;20125;-72
2021/04/14 12:33:44;;;;;;;1999.90;999.90;;;10.10;94.80;;;;;;5047937;28;20064;-72